Mednogorsk, Russia
Current Conditions -  °F | °C
As of 12:00 PM on Saturday 25 Oct 2014 (Local Time) from UWOR Reporting Station
Broken Clouds Broken Clouds  
Wind Chill:   Ceiling: 5000
Heat Index: 18°   Visibility: 6mi
Dew Point: 12°   Wind: 16mph
Humidity: 79%   Direction: 320°NW
Pressure: 30.03"   Gusts: 27mph
Location:  51.42°N, 57.58°E
Report Text: UWOR 250700Z 32007G12MPS 9999 BKN050 M08/M11 Q1017 25CLRD65NOSIG RMK QFE739/0986
Loading
Personal Weather Stations






























Interactive Weather Map
Tropical Storm Tracking
New forecast layout! Learn more

10-Day Weather Forecast

Advertisements
Track Severe Weather on mobile